sensor_id;sensor_type;location;lat;lon;timestamp;P1;durP1;ratioP1;P2;durP2;ratioP2
2872;SDS011;1444;49.166;7.312;2023-09-07T00:01:48;4.97;;;3.73;;
2872;SDS011;1444;49.166;7.312;2023-09-07T00:04:17;6.10;;;4.30;;
2872;SDS011;1444;49.166;7.312;2023-09-07T00:06:44;4.60;;;3.50;;
2872;SDS011;1444;49.166;7.312;2023-09-07T00:09:11;7.33;;;3.50;;
2872;SDS011;1444;49.166;7.312;2023-09-07T00:11:38;6.30;;;4.80;;
2872;SDS011;1444;49.166;7.312;2023-09-07T00:14:06;7.10;;;4.07;;
2872;SDS011;1444;49.166;7.312;2023-09-07T00:16:33;5.40;;;3.70;;
2872;SDS011;1444;49.166;7.312;2023-09-07T00:19:02;6.90;;;4.60;;
2872;SDS011;1444;49.166;7.312;2023-09-07T00:21:29;5.00;;;3.33;;
2872;SDS011;1444;49.166;7.312;2023-09-07T00:23:55;5.40;;;4.10;;
2872;SDS011;1444;49.166;7.312;2023-09-07T00:26:22;5.40;;;3.90;;
2872;SDS011;1444;49.166;7.312;2023-09-07T00:28:49;4.90;;;4.00;;
2872;SDS011;1444;49.166;7.312;2023-09-07T00:31:16;3.87;;;3.20;;
2872;SDS011;1444;49.166;7.312;2023-09-07T00:33:43;5.80;;;3.30;;
2872;SDS011;1444;49.166;7.312;2023-09-07T00:36:11;4.63;;;3.57;;
2872;SDS011;1444;49.166;7.312;2023-09-07T00:38:38;4.93;;;4.13;;
2872;SDS011;1444;49.166;7.312;2023-09-07T00:41:05;6.30;;;3.90;;
2872;SDS011;1444;49.166;7.312;2023-09-07T00:43:32;5.27;;;3.70;;
2872;SDS011;1444;49.166;7.312;2023-09-07T00:45:59;4.57;;;3.90;;
2872;SDS011;1444;49.166;7.312;2023-09-07T00:48:26;3.20;;;2.90;;
2872;SDS011;1444;49.166;7.312;2023-09-07T00:50:53;8.67;;;5.03;;
2872;SDS011;1444;49.166;7.312;2023-09-07T00:53:21;4.60;;;4.00;;
2872;SDS011;1444;49.166;7.312;2023-09-07T00:55:50;4.33;;;3.90;;
2872;SDS011;1444;49.166;7.312;2023-09-07T00:58:17;4.40;;;3.80;;
2872;SDS011;1444;49.166;7.312;2023-09-07T01:00:43;6.00;;;4.60;;
2872;SDS011;1444;49.166;7.312;2023-09-07T01:03:10;5.00;;;3.90;;
2872;SDS011;1444;49.166;7.312;2023-09-07T01:05:41;5.10;;;3.73;;
2872;SDS011;1444;49.166;7.312;2023-09-07T01:08:12;6.10;;;4.37;;
2872;SDS011;1444;49.166;7.312;2023-09-07T01:10:45;6.80;;;4.10;;
2872;SDS011;1444;49.166;7.312;2023-09-07T01:13:12;5.43;;;3.10;;
2872;SDS011;1444;49.166;7.312;2023-09-07T01:15:39;4.30;;;3.60;;
2872;SDS011;1444;49.166;7.312;2023-09-07T01:18:06;3.80;;;3.27;;
2872;SDS011;1444;49.166;7.312;2023-09-07T01:20:35;5.50;;;3.27;;
2872;SDS011;1444;49.166;7.312;2023-09-07T01:23:06;4.13;;;3.50;;
2872;SDS011;1444;49.166;7.312;2023-09-07T01:25:33;6.17;;;3.13;;
2872;SDS011;1444;49.166;7.312;2023-09-07T01:28:01;5.40;;;3.40;;
2872;SDS011;1444;49.166;7.312;2023-09-07T01:30:28;6.07;;;4.03;;
2872;SDS011;1444;49.166;7.312;2023-09-07T01:32:55;5.80;;;4.43;;
2872;SDS011;1444;49.166;7.312;2023-09-07T01:35:21;4.77;;;3.40;;
2872;SDS011;1444;49.166;7.312;2023-09-07T01:37:49;5.37;;;4.00;;
2872;SDS011;1444;49.166;7.312;2023-09-07T01:40:18;4.10;;;3.53;;
2872;SDS011;1444;49.166;7.312;2023-09-07T01:42:45;4.80;;;4.10;;
2872;SDS011;1444;49.166;7.312;2023-09-07T01:45:11;5.70;;;3.47;;
2872;SDS011;1444;49.166;7.312;2023-09-07T01:47:38;5.90;;;4.20;;
2872;SDS011;1444;49.166;7.312;2023-09-07T01:50:05;8.83;;;3.60;;
2872;SDS011;1444;49.166;7.312;2023-09-07T01:52:32;5.00;;;3.60;;
2872;SDS011;1444;49.166;7.312;2023-09-07T01:54:59;9.17;;;4.13;;
2872;SDS011;1444;49.166;7.312;2023-09-07T01:57:27;4.47;;;3.67;;
2872;SDS011;1444;49.166;7.312;2023-09-07T01:59:55;7.37;;;5.00;;
2872;SDS011;1444;49.166;7.312;2023-09-07T02:02:22;10.80;;;4.20;;
2872;SDS011;1444;49.166;7.312;2023-09-07T02:04:49;4.30;;;3.90;;
2872;SDS011;1444;49.166;7.312;2023-09-07T02:07:16;6.17;;;3.77;;
2872;SDS011;1444;49.166;7.312;2023-09-07T02:09:42;3.57;;;3.07;;
2872;SDS011;1444;49.166;7.312;2023-09-07T02:12:09;4.37;;;3.33;;
2872;SDS011;1444;49.166;7.312;2023-09-07T02:14:38;4.60;;;3.50;;
2872;SDS011;1444;49.166;7.312;2023-09-07T02:17:05;4.83;;;3.77;;
2872;SDS011;1444;49.166;7.312;2023-09-07T02:19:31;3.53;;;2.67;;
2872;SDS011;1444;49.166;7.312;2023-09-07T02:21:58;4.70;;;3.27;;
2872;SDS011;1444;49.166;7.312;2023-09-07T02:24:25;4.27;;;3.43;;
2872;SDS011;1444;49.166;7.312;2023-09-07T02:26:52;5.00;;;4.23;;
2872;SDS011;1444;49.166;7.312;2023-09-07T02:29:19;5.93;;;3.60;;
2872;SDS011;1444;49.166;7.312;2023-09-07T02:31:47;7.27;;;3.90;;
2872;SDS011;1444;49.166;7.312;2023-09-07T02:34:14;4.80;;;3.53;;
2872;SDS011;1444;49.166;7.312;2023-09-07T02:36:41;5.97;;;3.80;;
2872;SDS011;1444;49.166;7.312;2023-09-07T02:39:08;6.83;;;3.90;;
2872;SDS011;1444;49.166;7.312;2023-09-07T02:41:36;5.13;;;3.50;;
2872;SDS011;1444;49.166;7.312;2023-09-07T02:44:03;5.57;;;3.23;;
2872;SDS011;1444;49.166;7.312;2023-09-07T02:46:31;5.07;;;3.43;;
2872;SDS011;1444;49.166;7.312;2023-09-07T02:48:59;4.37;;;2.90;;
2872;SDS011;1444;49.166;7.312;2023-09-07T02:51:25;3.70;;;3.10;;
2872;SDS011;1444;49.166;7.312;2023-09-07T02:53:53;3.70;;;3.30;;
2872;SDS011;1444;49.166;7.312;2023-09-07T02:56:22;9.53;;;4.00;;
2872;SDS011;1444;49.166;7.312;2023-09-07T02:58:50;4.20;;;3.77;;
2872;SDS011;1444;49.166;7.312;2023-09-07T03:01:17;5.40;;;3.50;;
2872;SDS011;1444;49.166;7.312;2023-09-07T03:03:46;9.43;;;3.10;;
2872;SDS011;1444;49.166;7.312;2023-09-07T03:06:15;3.97;;;2.83;;
2872;SDS011;1444;49.166;7.312;2023-09-07T03:08:42;5.33;;;3.10;;
2872;SDS011;1444;49.166;7.312;2023-09-07T03:11:09;5.97;;;3.30;;
2872;SDS011;1444;49.166;7.312;2023-09-07T03:13:36;10.73;;;4.83;;
2872;SDS011;1444;49.166;7.312;2023-09-07T03:16:04;5.97;;;3.63;;
2872;SDS011;1444;49.166;7.312;2023-09-07T03:18:31;9.57;;;3.27;;
2872;SDS011;1444;49.166;7.312;2023-09-07T03:20:59;5.03;;;3.50;;
2872;SDS011;1444;49.166;7.312;2023-09-07T03:23:29;7.40;;;3.47;;
2872;SDS011;1444;49.166;7.312;2023-09-07T03:25:57;6.10;;;3.20;;
2872;SDS011;1444;49.166;7.312;2023-09-07T03:28:24;4.20;;;3.03;;
2872;SDS011;1444;49.166;7.312;2023-09-07T03:30:51;5.73;;;3.63;;
2872;SDS011;1444;49.166;7.312;2023-09-07T03:33:19;4.57;;;3.03;;
2872;SDS011;1444;49.166;7.312;2023-09-07T03:35:46;8.40;;;4.10;;
2872;SDS011;1444;49.166;7.312;2023-09-07T03:38:13;5.43;;;3.30;;
2872;SDS011;1444;49.166;7.312;2023-09-07T03:40:41;5.37;;;3.40;;
2872;SDS011;1444;49.166;7.312;2023-09-07T03:43:08;5.80;;;3.47;;
2872;SDS011;1444;49.166;7.312;2023-09-07T03:45:35;5.90;;;2.33;;
2872;SDS011;1444;49.166;7.312;2023-09-07T03:48:04;4.40;;;3.07;;
2872;SDS011;1444;49.166;7.312;2023-09-07T03:50:31;3.17;;;2.87;;
2872;SDS011;1444;49.166;7.312;2023-09-07T03:52:58;4.37;;;3.37;;
2872;SDS011;1444;49.166;7.312;2023-09-07T03:55:26;6.53;;;4.00;;
2872;SDS011;1444;49.166;7.312;2023-09-07T03:57:54;6.00;;;3.00;;
2872;SDS011;1444;49.166;7.312;2023-09-07T04:00:21;4.90;;;3.50;;
2872;SDS011;1444;49.166;7.312;2023-09-07T04:02:49;4.07;;;2.20;;
2872;SDS011;1444;49.166;7.312;2023-09-07T04:05:15;3.73;;;2.60;;
2872;SDS011;1444;49.166;7.312;2023-09-07T04:07:42;4.20;;;3.27;;
2872;SDS011;1444;49.166;7.312;2023-09-07T04:10:09;7.73;;;2.87;;
2872;SDS011;1444;49.166;7.312;2023-09-07T04:12:36;4.70;;;3.83;;
2872;SDS011;1444;49.166;7.312;2023-09-07T04:15:05;4.43;;;2.73;;
2872;SDS011;1444;49.166;7.312;2023-09-07T04:17:32;6.93;;;3.20;;
2872;SDS011;1444;49.166;7.312;2023-09-07T04:20:05;5.10;;;4.20;;
2872;SDS011;1444;49.166;7.312;2023-09-07T04:22:33;4.70;;;2.90;;
2872;SDS011;1444;49.166;7.312;2023-09-07T04:25:00;6.07;;;4.30;;
2872;SDS011;1444;49.166;7.312;2023-09-07T04:27:27;6.57;;;3.67;;
2872;SDS011;1444;49.166;7.312;2023-09-07T04:29:54;5.60;;;3.20;;
2872;SDS011;1444;49.166;7.312;2023-09-07T04:32:22;6.00;;;3.43;;
2872;SDS011;1444;49.166;7.312;2023-09-07T04:34:52;3.40;;;2.87;;
2872;SDS011;1444;49.166;7.312;2023-09-07T04:37:20;8.43;;;3.60;;
2872;SDS011;1444;49.166;7.312;2023-09-07T04:39:48;2.87;;;2.40;;
2872;SDS011;1444;49.166;7.312;2023-09-07T04:42:16;3.10;;;2.33;;
2872;SDS011;1444;49.166;7.312;2023-09-07T04:44:43;6.70;;;3.20;;
2872;SDS011;1444;49.166;7.312;2023-09-07T04:47:10;3.67;;;3.00;;
2872;SDS011;1444;49.166;7.312;2023-09-07T04:49:38;3.20;;;2.90;;
2872;SDS011;1444;49.166;7.312;2023-09-07T04:52:05;5.50;;;2.97;;
2872;SDS011;1444;49.166;7.312;2023-09-07T04:54:34;6.83;;;3.53;;
2872;SDS011;1444;49.166;7.312;2023-09-07T04:57:00;4.17;;;2.80;;
2872;SDS011;1444;49.166;7.312;2023-09-07T04:59:27;3.63;;;2.67;;
2872;SDS011;1444;49.166;7.312;2023-09-07T05:01:54;3.90;;;3.20;;
2872;SDS011;1444;49.166;7.312;2023-09-07T05:04:21;4.37;;;2.93;;
2872;SDS011;1444;49.166;7.312;2023-09-07T05:06:49;6.80;;;2.90;;
2872;SDS011;1444;49.166;7.312;2023-09-07T05:09:16;4.40;;;2.80;;
2872;SDS011;1444;49.166;7.312;2023-09-07T05:11:43;4.83;;;3.00;;
2872;SDS011;1444;49.166;7.312;2023-09-07T05:14:09;5.30;;;3.20;;
2872;SDS011;1444;49.166;7.312;2023-09-07T05:16:36;4.13;;;3.10;;
2872;SDS011;1444;49.166;7.312;2023-09-07T05:19:03;5.00;;;3.60;;
2872;SDS011;1444;49.166;7.312;2023-09-07T05:21:30;4.67;;;3.10;;
2872;SDS011;1444;49.166;7.312;2023-09-07T05:23:58;3.80;;;3.40;;
2872;SDS011;1444;49.166;7.312;2023-09-07T05:26:25;5.77;;;4.30;;
2872;SDS011;1444;49.166;7.312;2023-09-07T05:28:53;2.87;;;2.20;;
2872;SDS011;1444;49.166;7.312;2023-09-07T05:31:20;4.27;;;3.20;;
2872;SDS011;1444;49.166;7.312;2023-09-07T05:33:46;5.20;;;3.03;;
2872;SDS011;1444;49.166;7.312;2023-09-07T05:36:13;3.20;;;2.70;;
2872;SDS011;1444;49.166;7.312;2023-09-07T05:38:40;4.30;;;3.20;;
2872;SDS011;1444;49.166;7.312;2023-09-07T05:41:08;4.80;;;3.67;;
2872;SDS011;1444;49.166;7.312;2023-09-07T05:43:35;12.60;;;4.43;;
2872;SDS011;1444;49.166;7.312;2023-09-07T05:46:02;6.37;;;3.53;;
2872;SDS011;1444;49.166;7.312;2023-09-07T05:48:29;13.83;;;3.90;;
2872;SDS011;1444;49.166;7.312;2023-09-07T05:50:59;6.93;;;3.70;;
2872;SDS011;1444;49.166;7.312;2023-09-07T05:53:25;4.03;;;3.47;;
2872;SDS011;1444;49.166;7.312;2023-09-07T05:55:52;6.60;;;3.83;;
2872;SDS011;1444;49.166;7.312;2023-09-07T05:58:20;4.27;;;3.03;;
2872;SDS011;1444;49.166;7.312;2023-09-07T06:00:47;4.73;;;3.37;;
2872;SDS011;1444;49.166;7.312;2023-09-07T06:03:14;7.30;;;4.20;;
2872;SDS011;1444;49.166;7.312;2023-09-07T06:05:41;5.27;;;3.67;;
2872;SDS011;1444;49.166;7.312;2023-09-07T06:08:09;7.23;;;4.20;;
2872;SDS011;1444;49.166;7.312;2023-09-07T06:10:36;5.20;;;4.03;;
2872;SDS011;1444;49.166;7.312;2023-09-07T06:13:03;4.97;;;3.83;;
2872;SDS011;1444;49.166;7.312;2023-09-07T06:15:31;4.77;;;3.50;;
2872;SDS011;1444;49.166;7.312;2023-09-07T06:17:58;7.73;;;4.20;;
2872;SDS011;1444;49.166;7.312;2023-09-07T06:20:25;6.00;;;4.27;;
2872;SDS011;1444;49.166;7.312;2023-09-07T06:22:52;7.00;;;4.90;;
2872;SDS011;1444;49.166;7.312;2023-09-07T06:25:19;10.03;;;6.00;;
2872;SDS011;1444;49.166;7.312;2023-09-07T06:27:47;8.20;;;5.67;;
2872;SDS011;1444;49.166;7.312;2023-09-07T06:30:14;9.80;;;6.70;;
2872;SDS011;1444;49.166;7.312;2023-09-07T06:32:42;7.83;;;5.30;;
2872;SDS011;1444;49.166;7.312;2023-09-07T06:35:09;7.57;;;6.17;;
2872;SDS011;1444;49.166;7.312;2023-09-07T06:37:36;12.30;;;5.90;;
2872;SDS011;1444;49.166;7.312;2023-09-07T06:40:06;8.80;;;6.00;;
2872;SDS011;1444;49.166;7.312;2023-09-07T06:42:34;7.23;;;5.70;;
2872;SDS011;1444;49.166;7.312;2023-09-07T06:45:03;15.33;;;9.57;;
2872;SDS011;1444;49.166;7.312;2023-09-07T06:47:30;11.10;;;8.77;;
2872;SDS011;1444;49.166;7.312;2023-09-07T06:49:59;15.70;;;6.73;;
2872;SDS011;1444;49.166;7.312;2023-09-07T06:52:25;11.10;;;6.20;;
2872;SDS011;1444;49.166;7.312;2023-09-07T06:54:52;8.20;;;5.50;;
2872;SDS011;1444;49.166;7.312;2023-09-07T06:57:20;7.50;;;5.23;;
2872;SDS011;1444;49.166;7.312;2023-09-07T06:59:47;6.17;;;5.57;;
2872;SDS011;1444;49.166;7.312;2023-09-07T07:02:14;8.83;;;5.03;;
2872;SDS011;1444;49.166;7.312;2023-09-07T07:04:41;7.27;;;5.60;;
2872;SDS011;1444;49.166;7.312;2023-09-07T07:07:10;6.63;;;5.30;;
2872;SDS011;1444;49.166;7.312;2023-09-07T07:09:37;8.30;;;6.37;;
2872;SDS011;1444;49.166;7.312;2023-09-07T07:12:04;5.20;;;4.13;;
2872;SDS011;1444;49.166;7.312;2023-09-07T07:14:31;7.13;;;5.20;;
2872;SDS011;1444;49.166;7.312;2023-09-07T07:16:58;10.33;;;4.90;;
2872;SDS011;1444;49.166;7.312;2023-09-07T07:19:27;6.80;;;4.77;;
2872;SDS011;1444;49.166;7.312;2023-09-07T07:21:54;8.43;;;5.50;;
2872;SDS011;1444;49.166;7.312;2023-09-07T07:24:22;6.00;;;5.40;;
2872;SDS011;1444;49.166;7.312;2023-09-07T07:26:50;7.73;;;5.17;;
2872;SDS011;1444;49.166;7.312;2023-09-07T07:29:17;6.60;;;4.90;;
2872;SDS011;1444;49.166;7.312;2023-09-07T07:31:44;10.33;;;4.90;;
2872;SDS011;1444;49.166;7.312;2023-09-07T07:34:12;5.83;;;4.90;;
2872;SDS011;1444;49.166;7.312;2023-09-07T07:36:38;6.30;;;4.90;;
2872;SDS011;1444;49.166;7.312;2023-09-07T07:39:05;5.43;;;4.53;;
2872;SDS011;1444;49.166;7.312;2023-09-07T07:41:34;7.40;;;4.73;;
2872;SDS011;1444;49.166;7.312;2023-09-07T07:44:02;6.13;;;4.83;;
2872;SDS011;1444;49.166;7.312;2023-09-07T07:46:30;9.80;;;5.60;;
2872;SDS011;1444;49.166;7.312;2023-09-07T07:48:57;5.73;;;4.50;;
2872;SDS011;1444;49.166;7.312;2023-09-07T07:51:24;9.20;;;5.53;;
2872;SDS011;1444;49.166;7.312;2023-09-07T07:53:51;7.53;;;5.50;;
2872;SDS011;1444;49.166;7.312;2023-09-07T07:56:20;5.70;;;4.13;;
2872;SDS011;1444;49.166;7.312;2023-09-07T07:58:49;5.77;;;4.93;;
2872;SDS011;1444;49.166;7.312;2023-09-07T08:01:16;6.73;;;4.90;;
2872;SDS011;1444;49.166;7.312;2023-09-07T08:03:45;6.40;;;4.80;;
2872;SDS011;1444;49.166;7.312;2023-09-07T08:06:12;4.87;;;3.90;;
2872;SDS011;1444;49.166;7.312;2023-09-07T08:08:39;5.30;;;4.50;;
2872;SDS011;1444;49.166;7.312;2023-09-07T08:11:06;4.77;;;4.17;;
2872;SDS011;1444;49.166;7.312;2023-09-07T08:13:35;4.67;;;4.20;;
2872;SDS011;1444;49.166;7.312;2023-09-07T08:16:04;5.17;;;4.33;;
2872;SDS011;1444;49.166;7.312;2023-09-07T08:18:32;5.03;;;3.80;;
2872;SDS011;1444;49.166;7.312;2023-09-07T08:20:59;3.80;;;3.40;;
2872;SDS011;1444;49.166;7.312;2023-09-07T08:23:27;4.87;;;4.20;;
2872;SDS011;1444;49.166;7.312;2023-09-07T08:25:54;5.80;;;4.50;;
2872;SDS011;1444;49.166;7.312;2023-09-07T08:28:21;6.03;;;4.67;;
2872;SDS011;1444;49.166;7.312;2023-09-07T08:30:49;12.00;;;4.77;;
2872;SDS011;1444;49.166;7.312;2023-09-07T08:33:19;6.60;;;4.53;;
2872;SDS011;1444;49.166;7.312;2023-09-07T08:35:51;7.50;;;3.73;;
2872;SDS011;1444;49.166;7.312;2023-09-07T08:38:18;5.50;;;4.50;;
2872;SDS011;1444;49.166;7.312;2023-09-07T08:40:47;5.27;;;4.17;;
2872;SDS011;1444;49.166;7.312;2023-09-07T08:43:14;7.60;;;4.60;;
2872;SDS011;1444;49.166;7.312;2023-09-07T08:45:45;7.20;;;4.53;;
2872;SDS011;1444;49.166;7.312;2023-09-07T08:48:16;5.33;;;4.60;;
2872;SDS011;1444;49.166;7.312;2023-09-07T08:50:46;4.43;;;4.03;;
2872;SDS011;1444;49.166;7.312;2023-09-07T08:53:17;5.90;;;4.30;;
2872;SDS011;1444;49.166;7.312;2023-09-07T08:55:45;5.43;;;4.90;;
2872;SDS011;1444;49.166;7.312;2023-09-07T08:58:12;5.60;;;4.97;;
2872;SDS011;1444;49.166;7.312;2023-09-07T09:00:40;5.70;;;4.33;;
2872;SDS011;1444;49.166;7.312;2023-09-07T09:03:09;4.60;;;4.20;;
2872;SDS011;1444;49.166;7.312;2023-09-07T09:05:37;4.83;;;4.33;;
2872;SDS011;1444;49.166;7.312;2023-09-07T09:08:07;6.60;;;4.43;;
2872;SDS011;1444;49.166;7.312;2023-09-07T09:10:37;7.83;;;4.80;;
2872;SDS011;1444;49.166;7.312;2023-09-07T09:13:05;6.07;;;4.50;;
2872;SDS011;1444;49.166;7.312;2023-09-07T09:15:32;5.87;;;4.80;;
2872;SDS011;1444;49.166;7.312;2023-09-07T09:18:08;6.20;;;5.20;;
2872;SDS011;1444;49.166;7.312;2023-09-07T09:20:37;5.63;;;4.67;;
2872;SDS011;1444;49.166;7.312;2023-09-07T09:23:05;5.37;;;4.87;;
2872;SDS011;1444;49.166;7.312;2023-09-07T09:25:33;4.90;;;3.87;;
2872;SDS011;1444;49.166;7.312;2023-09-07T09:28:00;4.87;;;4.33;;
2872;SDS011;1444;49.166;7.312;2023-09-07T09:30:27;9.80;;;5.23;;
2872;SDS011;1444;49.166;7.312;2023-09-07T09:36:19;5.10;;;4.70;;
2872;SDS011;1444;49.166;7.312;2023-09-07T09:38:47;5.70;;;4.73;;
2872;SDS011;1444;49.166;7.312;2023-09-07T09:41:17;6.67;;;5.07;;
2872;SDS011;1444;49.166;7.312;2023-09-07T09:43:44;5.97;;;4.57;;
2872;SDS011;1444;49.166;7.312;2023-09-07T09:46:14;6.10;;;4.97;;
2872;SDS011;1444;49.166;7.312;2023-09-07T09:48:41;7.30;;;5.07;;
2872;SDS011;1444;49.166;7.312;2023-09-07T09:51:08;4.90;;;4.50;;
2872;SDS011;1444;49.166;7.312;2023-09-07T09:53:36;5.53;;;4.77;;
2872;SDS011;1444;49.166;7.312;2023-09-07T09:56:03;6.20;;;4.90;;
2872;SDS011;1444;49.166;7.312;2023-09-07T09:58:31;7.53;;;4.80;;
2872;SDS011;1444;49.166;7.312;2023-09-07T10:00:59;4.87;;;4.30;;
2872;SDS011;1444;49.166;7.312;2023-09-07T10:03:31;6.17;;;4.93;;
2872;SDS011;1444;49.166;7.312;2023-09-07T10:06:07;5.20;;;4.27;;
2872;SDS011;1444;49.166;7.312;2023-09-07T10:08:34;7.93;;;5.70;;
2872;SDS011;1444;49.166;7.312;2023-09-07T10:11:06;5.03;;;4.53;;
2872;SDS011;1444;49.166;7.312;2023-09-07T10:13:35;6.10;;;4.43;;
2872;SDS011;1444;49.166;7.312;2023-09-07T10:16:02;5.43;;;4.80;;
2872;SDS011;1444;49.166;7.312;2023-09-07T10:18:33;4.30;;;3.80;;
2872;SDS011;1444;49.166;7.312;2023-09-07T10:21:00;5.57;;;5.07;;
2872;SDS011;1444;49.166;7.312;2023-09-07T10:23:37;9.30;;;5.23;;
2872;SDS011;1444;49.166;7.312;2023-09-07T10:26:14;7.87;;;6.60;;
2872;SDS011;1444;49.166;7.312;2023-09-07T10:28:44;7.07;;;5.27;;
2872;SDS011;1444;49.166;7.312;2023-09-07T10:31:14;4.97;;;4.53;;
2872;SDS011;1444;49.166;7.312;2023-09-07T10:33:44;5.27;;;4.60;;
2872;SDS011;1444;49.166;7.312;2023-09-07T10:36:20;7.87;;;4.67;;
2872;SDS011;1444;49.166;7.312;2023-09-07T10:38:47;5.10;;;4.60;;
2872;SDS011;1444;49.166;7.312;2023-09-07T10:41:14;9.10;;;4.60;;
2872;SDS011;1444;49.166;7.312;2023-09-07T10:43:47;5.30;;;4.80;;
2872;SDS011;1444;49.166;7.312;2023-09-07T10:46:17;5.43;;;4.93;;
2872;SDS011;1444;49.166;7.312;2023-09-07T10:48:45;4.97;;;4.47;;
2872;SDS011;1444;49.166;7.312;2023-09-07T10:51:14;6.30;;;4.27;;
2872;SDS011;1444;49.166;7.312;2023-09-07T10:53:41;7.13;;;4.83;;
2872;SDS011;1444;49.166;7.312;2023-09-07T10:56:08;6.23;;;4.77;;
2872;SDS011;1444;49.166;7.312;2023-09-07T10:58:36;6.70;;;4.97;;
2872;SDS011;1444;49.166;7.312;2023-09-07T11:01:07;4.60;;;3.80;;
2872;SDS011;1444;49.166;7.312;2023-09-07T11:03:35;5.17;;;4.27;;
2872;SDS011;1444;49.166;7.312;2023-09-07T11:06:04;4.63;;;4.23;;
2872;SDS011;1444;49.166;7.312;2023-09-07T11:08:34;6.57;;;5.90;;
2872;SDS011;1444;49.166;7.312;2023-09-07T11:11:01;5.47;;;4.50;;
2872;SDS011;1444;49.166;7.312;2023-09-07T11:13:29;5.03;;;4.53;;
2872;SDS011;1444;49.166;7.312;2023-09-07T11:15:56;6.30;;;5.00;;
2872;SDS011;1444;49.166;7.312;2023-09-07T11:18:26;6.00;;;4.20;;
2872;SDS011;1444;49.166;7.312;2023-09-07T11:20:53;7.27;;;4.30;;
2872;SDS011;1444;49.166;7.312;2023-09-07T11:23:20;4.33;;;3.93;;
2872;SDS011;1444;49.166;7.312;2023-09-07T11:25:49;4.63;;;4.20;;
2872;SDS011;1444;49.166;7.312;2023-09-07T11:28:17;5.30;;;4.77;;
2872;SDS011;1444;49.166;7.312;2023-09-07T11:30:51;11.73;;;4.87;;
2872;SDS011;1444;49.166;7.312;2023-09-07T11:33:18;4.70;;;4.30;;
2872;SDS011;1444;49.166;7.312;2023-09-07T11:35:48;4.77;;;4.33;;
2872;SDS011;1444;49.166;7.312;2023-09-07T11:38:15;4.80;;;4.33;;
2872;SDS011;1444;49.166;7.312;2023-09-07T11:40:43;3.77;;;3.37;;
2872;SDS011;1444;49.166;7.312;2023-09-07T11:43:11;5.30;;;4.80;;
2872;SDS011;1444;49.166;7.312;2023-09-07T11:45:38;4.70;;;4.27;;
2872;SDS011;1444;49.166;7.312;2023-09-07T11:48:05;5.00;;;4.60;;
2872;SDS011;1444;49.166;7.312;2023-09-07T11:50:34;4.90;;;4.40;;
2872;SDS011;1444;49.166;7.312;2023-09-07T11:53:03;4.33;;;3.93;;
2872;SDS011;1444;49.166;7.312;2023-09-07T11:55:31;5.00;;;4.20;;
2872;SDS011;1444;49.166;7.312;2023-09-07T11:57:58;5.93;;;4.87;;
2872;SDS011;1444;49.166;7.312;2023-09-07T12:00:24;5.83;;;4.63;;
2872;SDS011;1444;49.166;7.312;2023-09-07T12:02:51;4.40;;;3.67;;
2872;SDS011;1444;49.166;7.312;2023-09-07T12:05:18;4.93;;;4.40;;
2872;SDS011;1444;49.166;7.312;2023-09-07T12:07:46;4.37;;;3.97;;
2872;SDS011;1444;49.166;7.312;2023-09-07T12:10:14;4.73;;;4.23;;
2872;SDS011;1444;49.166;7.312;2023-09-07T12:12:42;5.30;;;4.40;;
2872;SDS011;1444;49.166;7.312;2023-09-07T12:15:10;4.67;;;4.27;;
2872;SDS011;1444;49.166;7.312;2023-09-07T12:17:37;8.43;;;4.43;;
2872;SDS011;1444;49.166;7.312;2023-09-07T12:20:05;4.63;;;4.23;;
2872;SDS011;1444;49.166;7.312;2023-09-07T12:22:35;4.07;;;3.67;;
2872;SDS011;1444;49.166;7.312;2023-09-07T12:25:03;3.67;;;3.20;;
2872;SDS011;1444;49.166;7.312;2023-09-07T12:27:33;6.30;;;4.23;;
2872;SDS011;1444;49.166;7.312;2023-09-07T12:30:00;5.67;;;4.53;;
2872;SDS011;1444;49.166;7.312;2023-09-07T12:32:31;5.37;;;4.87;;
2872;SDS011;1444;49.166;7.312;2023-09-07T12:34:58;4.53;;;4.00;;
2872;SDS011;1444;49.166;7.312;2023-09-07T12:37:25;5.03;;;4.53;;
2872;SDS011;1444;49.166;7.312;2023-09-07T12:39:52;5.33;;;4.40;;
2872;SDS011;1444;49.166;7.312;2023-09-07T12:42:19;4.97;;;4.47;;
2872;SDS011;1444;49.166;7.312;2023-09-07T12:44:47;5.13;;;4.63;;
2872;SDS011;1444;49.166;7.312;2023-09-07T12:47:14;5.03;;;4.63;;
2872;SDS011;1444;49.166;7.312;2023-09-07T12:49:41;4.50;;;4.00;;
2872;SDS011;1444;49.166;7.312;2023-09-07T12:52:08;5.30;;;4.60;;
2872;SDS011;1444;49.166;7.312;2023-09-07T12:54:35;4.93;;;4.47;;
2872;SDS011;1444;49.166;7.312;2023-09-07T12:57:03;4.70;;;4.27;;
2872;SDS011;1444;49.166;7.312;2023-09-07T12:59:30;6.13;;;4.73;;
2872;SDS011;1444;49.166;7.312;2023-09-07T13:01:58;4.23;;;3.83;;
2872;SDS011;1444;49.166;7.312;2023-09-07T13:04:25;4.33;;;3.90;;
2872;SDS011;1444;49.166;7.312;2023-09-07T13:06:52;4.47;;;4.07;;
2872;SDS011;1444;49.166;7.312;2023-09-07T13:09:18;4.23;;;3.93;;
2872;SDS011;1444;49.166;7.312;2023-09-07T13:11:45;6.93;;;3.90;;
2872;SDS011;1444;49.166;7.312;2023-09-07T13:14:12;4.67;;;4.27;;
2872;SDS011;1444;49.166;7.312;2023-09-07T13:16:39;5.30;;;4.80;;
2872;SDS011;1444;49.166;7.312;2023-09-07T13:19:07;6.10;;;4.70;;
2872;SDS011;1444;49.166;7.312;2023-09-07T13:21:35;5.40;;;3.70;;
2872;SDS011;1444;49.166;7.312;2023-09-07T13:24:02;4.40;;;4.00;;
2872;SDS011;1444;49.166;7.312;2023-09-07T13:26:29;4.77;;;4.27;;
2872;SDS011;1444;49.166;7.312;2023-09-07T13:28:57;6.30;;;4.10;;
2872;SDS011;1444;49.166;7.312;2023-09-07T13:31:24;4.97;;;4.53;;
2872;SDS011;1444;49.166;7.312;2023-09-07T13:33:50;5.60;;;4.63;;
2872;SDS011;1444;49.166;7.312;2023-09-07T13:36:19;5.40;;;4.90;;
2872;SDS011;1444;49.166;7.312;2023-09-07T13:38:46;5.30;;;4.80;;
2872;SDS011;1444;49.166;7.312;2023-09-07T13:41:12;7.63;;;4.90;;
2872;SDS011;1444;49.166;7.312;2023-09-07T13:43:39;4.40;;;4.10;;
2872;SDS011;1444;49.166;7.312;2023-09-07T13:46:06;4.90;;;4.40;;
2872;SDS011;1444;49.166;7.312;2023-09-07T13:48:33;5.90;;;4.30;;
2872;SDS011;1444;49.166;7.312;2023-09-07T13:51:00;5.80;;;3.93;;
2872;SDS011;1444;49.166;7.312;2023-09-07T13:53:28;4.50;;;4.10;;
2872;SDS011;1444;49.166;7.312;2023-09-07T13:55:55;5.33;;;4.60;;
2872;SDS011;1444;49.166;7.312;2023-09-07T13:58:22;5.17;;;4.67;;
2872;SDS011;1444;49.166;7.312;2023-09-07T14:00:49;4.60;;;4.23;;
2872;SDS011;1444;49.166;7.312;2023-09-07T14:03:16;4.90;;;4.40;;
2872;SDS011;1444;49.166;7.312;2023-09-07T14:05:43;5.23;;;4.73;;
2872;SDS011;1444;49.166;7.312;2023-09-07T14:08:11;5.07;;;4.60;;
2872;SDS011;1444;49.166;7.312;2023-09-07T14:10:39;6.00;;;5.20;;
2872;SDS011;1444;49.166;7.312;2023-09-07T14:13:06;5.30;;;4.83;;
2872;SDS011;1444;49.166;7.312;2023-09-07T14:15:32;6.50;;;5.57;;
2872;SDS011;1444;49.166;7.312;2023-09-07T14:17:59;6.70;;;5.20;;
2872;SDS011;1444;49.166;7.312;2023-09-07T14:20:27;5.87;;;5.10;;
2872;SDS011;1444;49.166;7.312;2023-09-07T14:22:54;5.20;;;4.53;;
2872;SDS011;1444;49.166;7.312;2023-09-07T14:25:23;5.80;;;5.23;;
2872;SDS011;1444;49.166;7.312;2023-09-07T14:27:51;5.83;;;5.23;;
2872;SDS011;1444;49.166;7.312;2023-09-07T14:30:18;4.73;;;4.33;;
2872;SDS011;1444;49.166;7.312;2023-09-07T14:32:46;5.03;;;4.60;;
2872;SDS011;1444;49.166;7.312;2023-09-07T14:35:14;5.27;;;4.87;;
2872;SDS011;1444;49.166;7.312;2023-09-07T14:37:41;4.63;;;4.23;;
2872;SDS011;1444;49.166;7.312;2023-09-07T14:40:08;8.60;;;4.80;;
2872;SDS011;1444;49.166;7.312;2023-09-07T14:42:35;5.93;;;4.97;;
2872;SDS011;1444;49.166;7.312;2023-09-07T14:45:04;5.93;;;4.93;;
2872;SDS011;1444;49.166;7.312;2023-09-07T14:47:32;6.20;;;5.60;;
2872;SDS011;1444;49.166;7.312;2023-09-07T14:49:59;6.77;;;5.50;;
2872;SDS011;1444;49.166;7.312;2023-09-07T14:52:26;5.30;;;4.80;;
2872;SDS011;1444;49.166;7.312;2023-09-07T14:54:52;5.07;;;4.70;;
2872;SDS011;1444;49.166;7.312;2023-09-07T14:57:19;7.93;;;5.20;;
2872;SDS011;1444;49.166;7.312;2023-09-07T14:59:46;5.80;;;5.30;;
2872;SDS011;1444;49.166;7.312;2023-09-07T15:02:14;6.47;;;4.90;;
2872;SDS011;1444;49.166;7.312;2023-09-07T15:04:41;4.83;;;4.43;;
2872;SDS011;1444;49.166;7.312;2023-09-07T15:07:10;5.30;;;4.90;;
2872;SDS011;1444;49.166;7.312;2023-09-07T15:09:37;6.30;;;5.20;;
2872;SDS011;1444;49.166;7.312;2023-09-07T15:12:04;5.50;;;5.00;;
2872;SDS011;1444;49.166;7.312;2023-09-07T15:14:32;5.77;;;4.73;;
2872;SDS011;1444;49.166;7.312;2023-09-07T15:16:58;7.00;;;5.40;;
2872;SDS011;1444;49.166;7.312;2023-09-07T15:19:28;4.90;;;4.40;;
2872;SDS011;1444;49.166;7.312;2023-09-07T15:21:55;4.80;;;4.43;;